createdAt,value
2022-09-28T00:00:38.092Z,9.76
2022-09-28T00:03:04.979Z,9.77
2022-09-28T00:05:31.918Z,9.80
2022-09-28T00:07:58.618Z,9.76
2022-09-28T00:10:25.463Z,9.76
2022-09-28T00:12:53.592Z,9.71
2022-09-28T00:15:22.436Z,9.69
2022-09-28T00:17:49.223Z,9.69
2022-09-28T00:20:16.841Z,9.67
2022-09-28T00:22:43.650Z,9.64
2022-09-28T00:25:10.985Z,9.65
2022-09-28T00:27:37.669Z,9.63
2022-09-28T00:30:05.950Z,9.64
2022-09-28T00:32:34.007Z,9.61
2022-09-28T00:35:00.764Z,9.63
2022-09-28T00:37:27.681Z,9.63
2022-09-28T00:39:54.888Z,9.61
2022-09-28T00:42:25.295Z,9.66
2022-09-28T00:44:53.150Z,9.70
2022-09-28T00:47:33.793Z,9.72
2022-09-28T00:50:11.791Z,9.69
2022-09-28T00:52:47.262Z,9.66
2022-09-28T00:55:19.534Z,9.66
2022-09-28T00:57:55.162Z,9.61
2022-09-28T01:00:22.414Z,9.57
2022-09-28T01:02:49.319Z,9.56
2022-09-28T01:05:21.230Z,9.54
2022-09-28T01:07:48.896Z,9.58
2022-09-28T01:10:17.163Z,9.58
2022-09-28T01:12:43.966Z,9.57
2022-09-28T01:15:11.149Z,9.57
2022-09-28T01:17:57.751Z,9.57
2022-09-28T01:20:52.266Z,9.61
2022-09-28T01:23:53.763Z,9.63
2022-09-28T01:26:43.298Z,9.71
2022-09-28T01:29:23.358Z,9.67
2022-09-28T01:32:00.587Z,9.67
2022-09-28T01:34:38.951Z,9.68
2022-09-28T01:37:14.325Z,9.70
2022-09-28T01:39:48.949Z,9.66
2022-09-28T01:42:24.542Z,9.66
2022-09-28T01:44:56.735Z,9.65
2022-09-28T01:47:27.161Z,9.66
2022-09-28T01:50:04.864Z,9.70
2022-09-28T01:52:39.858Z,9.70
2022-09-28T01:55:17.311Z,9.69
2022-09-28T01:57:54.952Z,9.71
2022-09-28T02:00:26.318Z,9.71
2022-09-28T02:03:02.814Z,9.71
2022-09-28T02:05:52.318Z,9.67
2022-09-28T02:08:29.785Z,9.64
2022-09-28T02:11:05.803Z,9.67
2022-09-28T02:13:40.501Z,9.69
2022-09-28T02:16:19.663Z,9.72
2022-09-28T02:18:50.766Z,9.74
2022-09-28T02:21:26.253Z,9.77
2022-09-28T02:23:58.803Z,9.78
2022-09-28T02:26:32.198Z,9.81
2022-09-28T02:29:00.668Z,9.84
2022-09-28T02:31:28.244Z,9.87
2022-09-28T02:33:58.567Z,9.92
2022-09-28T02:36:27.305Z,9.96
2022-09-28T02:38:55.091Z,10.02
2022-09-28T02:41:48.369Z,10.09
2022-09-28T02:44:43.245Z,10.22
2022-09-28T02:47:31.346Z,10.29
2022-09-28T02:50:15.561Z,10.35
2022-09-28T02:53:16.467Z,10.34
2022-09-28T02:56:09.943Z,10.06
2022-09-28T02:58:55.120Z,10.12
2022-09-28T03:01:36.642Z,10.25
2022-09-28T03:04:18.624Z,10.28
2022-09-28T03:06:55.852Z,10.24
2022-09-28T03:09:28.871Z,10.27
2022-09-28T03:12:03.364Z,10.26
2022-09-28T03:14:30.374Z,10.32
2022-09-28T03:16:59.222Z,10.24
2022-09-28T03:19:32.405Z,10.19
2022-09-28T03:22:00.518Z,10.03
2022-09-28T03:24:27.421Z,10.10
2022-09-28T03:26:54.368Z,10.06
2022-09-28T03:29:22.806Z,10.10
2022-09-28T03:31:55.456Z,10.16
2022-09-28T03:34:24.037Z,10.20
2022-09-28T03:36:51.513Z,10.24
2022-09-28T03:39:18.385Z,10.18
2022-09-28T03:41:45.371Z,10.22
2022-09-28T03:44:12.301Z,10.21
2022-09-28T03:46:39.657Z,10.22
2022-09-28T03:49:09.310Z,10.24
2022-09-28T03:51:37.450Z,10.27
2022-09-28T03:54:05.293Z,10.21
2022-09-28T03:56:32.174Z,10.25
2022-09-28T03:58:59.039Z,10.29
2022-09-28T04:01:26.568Z,10.34
2022-09-28T04:03:54.573Z,10.35
2022-09-28T04:06:21.609Z,10.37
2022-09-28T04:08:50.130Z,10.34
2022-09-28T04:11:17.881Z,10.18
2022-09-28T04:13:48.911Z,10.17
2022-09-28T04:16:16.565Z,10.20
2022-09-28T04:18:48.783Z,10.22
2022-09-28T04:21:44.781Z,10.29
2022-09-28T04:24:15.266Z,10.30
2022-09-28T04:26:42.448Z,10.19
2022-09-28T04:29:11.693Z,10.09
2022-09-28T04:31:42.976Z,10.08
2022-09-28T04:34:10.522Z,9.98
2022-09-28T04:36:37.435Z,10.05
2022-09-28T04:39:04.363Z,9.90
2022-09-28T04:41:34.398Z,9.93
2022-09-28T04:44:02.242Z,9.94
2022-09-28T04:46:29.397Z,9.93
2022-09-28T04:49:22.614Z,10.01
2022-09-28T04:51:52.887Z,10.03
2022-09-28T04:54:19.797Z,9.97
2022-09-28T04:56:48.751Z,9.91
2022-09-28T04:59:15.687Z,9.83
2022-09-28T05:01:44.329Z,9.80
2022-09-28T05:04:30.093Z,9.78
2022-09-28T05:07:20.054Z,9.80
2022-09-28T05:09:47.122Z,9.74
2022-09-28T05:12:16.543Z,9.79
2022-09-28T05:14:43.735Z,9.88
2022-09-28T05:17:10.878Z,9.94
2022-09-28T05:19:56.213Z,9.95
2022-09-28T05:22:23.234Z,10.05
2022-09-28T05:24:56.323Z,10.10
2022-09-28T05:27:25.620Z,10.10
2022-09-28T05:30:00.830Z,10.16
2022-09-28T05:32:30.517Z,10.14
2022-09-28T05:35:17.913Z,10.20
2022-09-28T05:37:46.937Z,10.24
2022-09-28T05:40:14.335Z,10.28
2022-09-28T05:42:42.842Z,10.33
2022-09-28T05:45:10.552Z,10.30
2022-09-28T05:47:42.208Z,10.34
2022-09-28T05:50:12.735Z,10.36
2022-09-28T05:52:40.195Z,10.45
2022-09-28T05:55:09.501Z,10.48
2022-09-28T05:57:36.436Z,10.52
2022-09-28T06:00:07.132Z,10.48
2022-09-28T06:02:39.830Z,10.52
2022-09-28T06:05:09.494Z,10.46
2022-09-28T06:07:36.395Z,10.50
2022-09-28T06:10:04.540Z,10.56
2022-09-28T06:12:39.417Z,10.54
2022-09-28T06:15:14.667Z,10.56
2022-09-28T06:17:41.493Z,10.57
2022-09-28T06:20:35.458Z,10.62
2022-09-28T06:23:16.115Z,10.65
2022-09-28T06:25:43.339Z,10.68
2022-09-28T06:28:12.727Z,10.68
2022-09-28T06:30:43.229Z,10.70
2022-09-28T06:33:14.986Z,10.74
2022-09-28T06:35:42.380Z,10.77
2022-09-28T06:38:09.900Z,10.81
2022-09-28T06:40:38.708Z,10.81
2022-09-28T06:43:10.599Z,10.78
2022-09-28T06:45:57.897Z,10.83
2022-09-28T06:48:30.255Z,10.86
2022-09-28T06:50:57.429Z,10.85
2022-09-28T06:53:32.188Z,10.88
2022-09-28T06:56:02.426Z,10.95
2022-09-28T06:58:30.059Z,11.01
2022-09-28T07:01:00.959Z,11.01
2022-09-28T07:03:30.593Z,11.06
2022-09-28T07:06:14.574Z,11.11
2022-09-28T07:09:29.628Z,11.15
2022-09-28T07:12:18.155Z,11.23
2022-09-28T07:14:53.419Z,11.34
2022-09-28T07:17:22.478Z,11.44
2022-09-28T07:19:49.635Z,11.52
2022-09-28T07:22:19.399Z,11.57
2022-09-28T07:24:48.642Z,11.69
2022-09-28T07:27:34.807Z,11.90
2022-09-28T07:30:31.501Z,12.21
2022-09-28T07:33:07.185Z,12.42
2022-09-28T07:35:55.889Z,12.70
2022-09-28T07:38:27.523Z,12.86
2022-09-28T07:40:56.887Z,12.95
2022-09-28T07:43:23.983Z,12.92
2022-09-28T07:45:54.301Z,13.00
2022-09-28T07:48:23.331Z,13.14
2022-09-28T07:51:06.700Z,13.17
2022-09-28T07:53:38.742Z,12.99
2022-09-28T07:56:15.784Z,12.96
2022-09-28T07:58:51.385Z,12.95
2022-09-28T08:01:26.967Z,13.03
2022-09-28T08:03:55.838Z,13.18
2022-09-28T08:06:31.400Z,13.23
2022-09-28T08:09:01.814Z,13.37
2022-09-28T08:12:05.309Z,13.87
2022-09-28T08:14:59.567Z,14.85
2022-09-28T08:17:49.158Z,15.78
2022-09-28T08:20:19.756Z,16.28
2022-09-28T08:22:52.907Z,17.05
2022-09-28T08:25:20.244Z,16.88
2022-09-28T08:27:47.337Z,16.95
2022-09-28T08:30:15.148Z,17.17
2022-09-28T08:33:03.007Z,16.52
2022-09-28T08:35:58.055Z,16.36
2022-09-28T08:38:53.225Z,15.99
2022-09-28T08:41:48.583Z,14.96
2022-09-28T08:44:53.779Z,14.53
2022-09-28T08:47:53.354Z,14.29
2022-09-28T08:50:39.741Z,14.05
2022-09-28T08:53:37.660Z,13.89
2022-09-28T08:56:39.984Z,13.90
2022-09-28T08:59:16.193Z,13.78
2022-09-28T09:01:55.326Z,13.68
2022-09-28T09:04:25.294Z,13.96
2022-09-28T09:07:30.600Z,14.20
2022-09-28T09:10:32.909Z,14.35
2022-09-28T09:13:20.345Z,14.35
2022-09-28T09:15:57.889Z,14.62
2022-09-28T09:18:48.243Z,14.59
2022-09-28T09:21:41.460Z,14.70
2022-09-28T09:24:26.062Z,14.82
2022-09-28T09:27:05.903Z,15.00
2022-09-28T09:29:54.461Z,14.82
2022-09-28T09:32:43.989Z,15.33
2022-09-28T09:35:32.971Z,15.35
2022-09-28T09:38:48.640Z,15.62
2022-09-28T09:42:01.351Z,16.23
2022-09-28T09:45:24.015Z,16.00
2022-09-28T09:48:18.261Z,16.54
2022-09-28T09:50:53.775Z,16.72
2022-09-28T09:53:37.617Z,16.35
2022-09-28T09:56:17.359Z,17.48
2022-09-28T09:59:13.868Z,17.41
2022-09-28T10:02:11.909Z,17.25
2022-09-28T10:04:53.843Z,17.59
2022-09-28T10:07:39.366Z,17.12
2022-09-28T10:10:21.719Z,18.20
2022-09-28T10:12:51.812Z,18.36
2022-09-28T10:15:25.194Z,18.45
2022-09-28T10:18:15.709Z,18.44
2022-09-28T10:21:05.015Z,18.73
2022-09-28T10:23:58.469Z,19.28
2022-09-28T10:26:35.984Z,18.81
2022-09-28T10:29:11.340Z,18.73
2022-09-28T10:31:42.438Z,19.18
2022-09-28T10:34:31.070Z,19.38
2022-09-28T10:37:10.626Z,18.88
2022-09-28T10:39:56.473Z,18.90
2022-09-28T10:42:30.306Z,19.17
2022-09-28T10:45:04.276Z,19.85
2022-09-28T10:47:36.848Z,20.99
2022-09-28T10:50:23.153Z,21.97
2022-09-28T10:53:12.455Z,21.19
2022-09-28T10:56:04.620Z,21.16
2022-09-28T10:58:38.170Z,20.86
2022-09-28T11:01:12.320Z,20.73
2022-09-28T11:03:53.524Z,19.78
2022-09-28T11:06:28.527Z,19.46
2022-09-28T11:09:00.271Z,19.80
2022-09-28T11:11:29.131Z,20.27
2022-09-28T11:14:03.664Z,20.19
2022-09-28T11:16:36.351Z,19.34
2022-09-28T11:19:26.569Z,18.50
2022-09-28T11:21:55.743Z,17.94
2022-09-28T11:24:30.393Z,17.60
2022-09-28T11:27:00.734Z,17.90
2022-09-28T11:29:38.673Z,19.61
2022-09-28T11:32:23.307Z,20.74
2022-09-28T11:35:19.293Z,21.49
2022-09-28T11:38:25.138Z,19.88
2022-09-28T11:41:23.597Z,20.43
2022-09-28T11:44:37.094Z,19.75
2022-09-28T11:47:37.795Z,19.21
2022-09-28T11:50:24.133Z,18.62
2022-09-28T11:53:09.097Z,18.22
2022-09-28T11:55:44.267Z,18.10
2022-09-28T11:58:22.518Z,17.73
2022-09-28T12:00:57.348Z,17.25
2022-09-28T12:03:41.719Z,17.00
2022-09-28T12:06:16.357Z,17.18
2022-09-28T12:08:53.577Z,17.16
2022-09-28T12:11:44.967Z,17.05
2022-09-28T12:14:31.030Z,16.90
2022-09-28T12:17:08.803Z,16.84
2022-09-28T12:19:45.036Z,16.69
2022-09-28T12:22:22.857Z,16.60
2022-09-28T12:24:57.249Z,16.60
2022-09-28T12:27:34.909Z,16.71
2022-09-28T12:30:14.163Z,16.60
2022-09-28T12:32:49.621Z,16.49
2022-09-28T12:35:32.228Z,16.55
2022-09-28T12:38:35.449Z,16.26
2022-09-28T12:41:22.377Z,16.26
2022-09-28T12:44:15.064Z,16.30
2022-09-28T12:47:21.284Z,16.49
2022-09-28T12:53:42.251Z,16.73
2022-09-28T12:56:23.114Z,16.85
2022-09-28T12:59:14.864Z,16.83
2022-09-28T13:02:25.600Z,16.80
2022-09-28T13:05:10.604Z,16.79
2022-09-28T13:07:53.492Z,16.94
2022-09-28T13:10:31.239Z,16.56
2022-09-28T13:13:26.732Z,16.57
2022-09-28T13:16:03.001Z,16.51
2022-09-28T13:18:42.359Z,16.54
2022-09-28T13:21:26.075Z,16.49
2022-09-28T13:24:09.062Z,16.55
2022-09-28T13:26:47.745Z,16.49
2022-09-28T13:29:20.634Z,16.39
2022-09-28T13:31:56.772Z,16.23
2022-09-28T13:34:29.090Z,16.22
2022-09-28T13:37:21.009Z,15.80
2022-09-28T13:39:50.783Z,15.41
2022-09-28T13:42:51.670Z,15.44
2022-09-28T13:45:59.786Z,15.29
2022-09-28T13:48:46.758Z,15.14
2022-09-28T13:51:51.995Z,15.01
2022-09-28T13:54:41.956Z,14.87
2022-09-28T13:57:21.279Z,14.83
2022-09-28T14:00:11.829Z,14.83
2022-09-28T14:02:46.656Z,14.97
2022-09-28T14:05:44.857Z,15.15
2022-09-28T14:08:38.741Z,14.86
2022-09-28T14:11:40.808Z,14.20
2022-09-28T14:14:48.362Z,14.33
2022-09-28T14:18:04.968Z,14.44
2022-09-28T14:20:35.208Z,14.62
2022-09-28T14:23:55.159Z,14.77
2022-09-28T14:26:59.371Z,14.52
2022-09-28T14:29:29.127Z,14.55
2022-09-28T14:31:57.874Z,14.60
2022-09-28T14:34:36.461Z,14.69
2022-09-28T14:37:20.142Z,14.80
2022-09-28T14:39:48.444Z,14.81
2022-09-28T14:42:20.293Z,14.79
2022-09-28T14:45:34.485Z,14.41
2022-09-28T14:48:19.424Z,14.57
2022-09-28T14:50:48.550Z,14.66
2022-09-28T14:53:23.369Z,14.76
2022-09-28T14:55:55.366Z,14.82
2022-09-28T14:58:26.144Z,14.86
2022-09-28T15:01:04.550Z,14.86
2022-09-28T15:03:37.047Z,14.89
2022-09-28T15:06:05.781Z,15.00
2022-09-28T15:08:38.285Z,14.98
2022-09-28T15:11:13.525Z,14.87
2022-09-28T15:13:42.699Z,14.78
2022-09-28T15:16:13.983Z,14.79
2022-09-28T15:19:19.283Z,14.88
2022-09-28T15:21:47.595Z,14.90
2022-09-28T15:24:29.483Z,14.93
2022-09-28T15:26:56.298Z,15.02
2022-09-28T15:29:23.678Z,15.12
2022-09-28T15:31:54.367Z,15.16
2022-09-28T15:34:34.120Z,15.15
2022-09-28T15:37:03.637Z,15.14
2022-09-28T15:39:33.336Z,15.17
2022-09-28T15:42:01.144Z,15.17
2022-09-28T15:44:31.110Z,15.14
2022-09-28T15:47:15.495Z,15.15
2022-09-28T15:49:54.386Z,15.15
2022-09-28T15:52:37.509Z,15.10
2022-09-28T15:55:22.438Z,15.06
2022-09-28T15:57:50.272Z,15.02
2022-09-28T16:00:28.150Z,15.00
2022-09-28T16:03:23.260Z,15.06
2022-09-28T16:06:06.683Z,15.06
2022-09-28T16:08:43.439Z,15.07
2022-09-28T16:11:21.273Z,15.03
2022-09-28T16:14:02.087Z,14.99
2022-09-28T16:16:33.319Z,14.98
2022-09-28T16:19:02.606Z,14.88
2022-09-28T16:21:44.835Z,14.88
2022-09-28T16:24:27.426Z,14.77
2022-09-28T16:26:59.026Z,14.70
2022-09-28T16:29:34.986Z,14.66
2022-09-28T16:32:36.689Z,14.66
2022-09-28T16:35:50.468Z,14.59
2022-09-28T16:38:19.355Z,14.51
2022-09-28T16:40:50.740Z,14.35
2022-09-28T16:43:21.958Z,14.29
2022-09-28T16:45:49.348Z,14.22
2022-09-28T16:48:16.453Z,14.07
2022-09-28T16:50:45.170Z,14.01
2022-09-28T16:53:15.206Z,13.98
2022-09-28T16:55:42.745Z,13.93
2022-09-28T16:58:14.996Z,13.90
2022-09-28T17:00:54.519Z,13.83
2022-09-28T17:03:22.123Z,13.82
2022-09-28T17:05:51.148Z,13.81
2022-09-28T17:08:20.880Z,13.75
2022-09-28T17:11:13.002Z,13.69
2022-09-28T17:13:41.995Z,13.65
2022-09-28T17:16:13.914Z,13.56
2022-09-28T17:18:45.417Z,13.54
2022-09-28T17:21:16.022Z,13.56
2022-09-28T17:23:43.253Z,13.54
2022-09-28T17:26:20.284Z,13.51
2022-09-28T17:28:48.755Z,13.50
2022-09-28T17:31:21.765Z,13.46
2022-09-28T17:33:48.856Z,13.38
2022-09-28T17:36:18.574Z,13.38
2022-09-28T17:38:47.800Z,13.33
2022-09-28T17:41:20.718Z,13.26
2022-09-28T17:43:49.451Z,13.13
2022-09-28T17:46:27.415Z,13.00
2022-09-28T17:49:02.887Z,12.89
2022-09-28T17:51:33.380Z,12.76
2022-09-28T17:54:01.415Z,12.66
2022-09-28T17:56:32.129Z,12.50
2022-09-28T17:59:05.350Z,12.19
2022-09-28T18:01:34.138Z,12.29
2022-09-28T18:04:02.379Z,12.31
2022-09-28T18:06:29.507Z,12.30
2022-09-28T18:08:56.208Z,12.33
2022-09-28T18:11:23.263Z,12.38
2022-09-28T18:13:50.415Z,12.37
2022-09-28T18:16:18.645Z,12.34
2022-09-28T18:18:45.975Z,12.14
2022-09-28T18:21:13.884Z,12.24
2022-09-28T18:23:41.534Z,11.98
2022-09-28T18:26:11.457Z,12.04
2022-09-28T18:28:38.989Z,12.19
2022-09-28T18:31:08.248Z,12.23
2022-09-28T18:33:52.478Z,12.24
2022-09-28T18:36:19.406Z,12.21
2022-09-28T18:38:46.591Z,12.25
2022-09-28T18:41:15.998Z,12.26
2022-09-28T18:43:49.317Z,12.35
2022-09-28T18:46:20.415Z,12.36
2022-09-28T18:48:51.946Z,12.19
2022-09-28T18:51:19.387Z,11.99
2022-09-28T18:53:48.970Z,12.04
2022-09-28T18:56:18.202Z,12.11
2022-09-28T18:58:47.478Z,11.75
2022-09-28T19:01:32.820Z,11.57
2022-09-28T19:04:06.837Z,11.69
2022-09-28T19:06:38.285Z,11.72
2022-09-28T19:09:05.461Z,11.74
2022-09-28T19:11:32.636Z,11.72
2022-09-28T19:13:59.476Z,11.57
2022-09-28T19:16:29.307Z,11.56
2022-09-28T19:18:57.492Z,11.47
2022-09-28T19:21:26.293Z,11.58
2022-09-28T19:23:53.288Z,11.57
2022-09-28T19:26:23.718Z,11.35
2022-09-28T19:28:51.284Z,11.36
2022-09-28T19:31:19.404Z,11.32
2022-09-28T19:33:46.889Z,11.33
2022-09-28T19:36:17.026Z,11.28
2022-09-28T19:38:45.891Z,11.27
2022-09-28T19:41:15.584Z,11.25
2022-09-28T19:43:42.433Z,11.26
2022-09-28T19:46:09.543Z,11.28
2022-09-28T19:48:36.630Z,11.21
2022-09-28T19:51:06.732Z,11.23
2022-09-28T19:53:36.303Z,11.24
2022-09-28T19:56:05.869Z,11.19
2022-09-28T19:58:36.051Z,11.26
2022-09-28T20:01:05.958Z,11.28
2022-09-28T20:03:32.952Z,11.40
2022-09-28T20:06:00.905Z,11.43
2022-09-28T20:08:28.460Z,11.34
2022-09-28T20:10:56.419Z,11.23
2022-09-28T20:13:32.569Z,11.23
2022-09-28T20:16:04.663Z,11.21
2022-09-28T20:18:35.122Z,11.08
2022-09-28T20:21:03.163Z,11.10
2022-09-28T20:23:31.670Z,10.99
2022-09-28T20:25:58.953Z,11.03
2022-09-28T20:28:27.111Z,10.99
2022-09-28T20:30:54.017Z,10.86
2022-09-28T20:33:28.705Z,10.61
2022-09-28T20:35:56.908Z,10.50
2022-09-28T20:38:23.808Z,10.47
2022-09-28T20:40:50.634Z,10.48
2022-09-28T20:43:17.456Z,10.40
2022-09-28T20:45:45.571Z,10.36
2022-09-28T20:48:12.501Z,10.36
2022-09-28T20:50:39.283Z,10.39
2022-09-28T20:53:06.495Z,10.43
2022-09-28T20:55:33.674Z,10.40
2022-09-28T20:58:03.061Z,10.42
2022-09-28T21:00:30.031Z,10.34
2022-09-28T21:02:58.234Z,10.24
2022-09-28T21:05:25.020Z,10.24
2022-09-28T21:07:51.719Z,10.28
2022-09-28T21:10:18.591Z,10.32
2022-09-28T21:12:46.500Z,10.19
2022-09-28T21:15:13.459Z,10.11
2022-09-28T21:17:40.500Z,10.09
2022-09-28T21:20:09.639Z,10.09
2022-09-28T21:22:36.402Z,10.12
2022-09-28T21:25:03.907Z,10.16
2022-09-28T21:27:30.878Z,10.17
2022-09-28T21:29:57.666Z,10.20
2022-09-28T21:32:24.704Z,10.20
2022-09-28T21:34:51.738Z,10.22
2022-09-28T21:37:20.206Z,10.23
2022-09-28T21:39:47.001Z,10.21
2022-09-28T21:42:13.915Z,10.20
2022-09-28T21:44:40.796Z,10.17
2022-09-28T21:47:07.597Z,10.10
2022-09-28T21:49:34.510Z,10.02
2022-09-28T21:52:01.859Z,10.01
2022-09-28T21:54:30.003Z,10.09
2022-09-28T21:56:56.829Z,9.97
2022-09-28T21:59:23.633Z,10.00
2022-09-28T22:01:50.375Z,9.91
2022-09-28T22:04:17.309Z,9.82
2022-09-28T22:06:44.119Z,9.84
2022-09-28T22:09:11.067Z,9.88
2022-09-28T22:11:39.123Z,9.74
2022-09-28T22:14:06.128Z,9.62
2022-09-28T22:16:33.061Z,9.63
2022-09-28T22:18:59.927Z,9.61
2022-09-28T22:21:29.660Z,9.60
2022-09-28T22:23:58.860Z,9.60
2022-09-28T22:26:27.203Z,9.64
2022-09-28T22:28:57.469Z,9.64
2022-09-28T22:31:27.524Z,9.62
2022-09-28T22:33:54.966Z,9.54
2022-09-28T22:36:22.508Z,9.51
2022-09-28T22:38:49.841Z,9.45
2022-09-28T22:41:19.548Z,9.48
2022-09-28T22:43:48.176Z,9.45
2022-09-28T22:46:19.307Z,9.41
2022-09-28T22:48:47.258Z,9.38
2022-09-28T22:51:14.605Z,9.46
2022-09-28T22:53:41.458Z,9.52
2022-09-28T22:56:15.934Z,9.37
2022-09-28T22:58:45.251Z,9.26
2022-09-28T23:01:17.857Z,9.26
2022-09-28T23:03:45.551Z,9.29
2022-09-28T23:06:15.527Z,9.14
2022-09-28T23:08:44.018Z,9.08
2022-09-28T23:11:11.083Z,9.13
2022-09-28T23:13:37.902Z,9.13
2022-09-28T23:16:08.211Z,9.04
2022-09-28T23:18:39.183Z,8.95
2022-09-28T23:21:09.655Z,8.85
2022-09-28T23:23:36.531Z,8.85
2022-09-28T23:26:11.419Z,8.84
2022-09-28T23:28:38.915Z,8.84
2022-09-28T23:31:11.996Z,8.87
2022-09-28T23:33:40.481Z,8.87
2022-09-28T23:36:08.858Z,8.90
2022-09-28T23:38:36.433Z,8.95
2022-09-28T23:41:03.772Z,9.01
2022-09-28T23:43:30.525Z,9.16
2022-09-28T23:45:57.523Z,9.15
2022-09-28T23:48:24.272Z,9.11
2022-09-28T23:50:52.614Z,9.07
2022-09-28T23:53:19.532Z,9.05
2022-09-28T23:55:46.353Z,9.00
2022-09-28T23:58:13.473Z,9.04
